createdAt,value
2018-12-21T00:00:28.219Z,7.9
2018-12-21T00:01:29.763Z,7.9
2018-12-21T00:02:31.313Z,7.9
2018-12-21T00:03:32.844Z,7.2
2018-12-21T00:04:34.243Z,7.4
2018-12-21T00:05:35.624Z,7.5
2018-12-21T00:06:36.997Z,7.6
2018-12-21T00:07:38.561Z,7.7
2018-12-21T00:08:39.932Z,7.8
2018-12-21T00:09:41.313Z,7.8
2018-12-21T00:10:42.859Z,7.9
2018-12-21T00:11:44.383Z,7.9
2018-12-21T00:12:45.739Z,7.9
2018-12-21T00:13:47.119Z,7.9
2018-12-21T00:14:48.501Z,7.9
2018-12-21T00:15:49.885Z,7.9
2018-12-21T00:16:51.421Z,7.9
2018-12-21T00:17:52.948Z,7.8
2018-12-21T00:18:54.328Z,7.8
2018-12-21T00:19:55.699Z,7.8
2018-12-21T00:20:57.234Z,7.8
2018-12-21T00:21:58.764Z,7.8
2018-12-21T00:23:00.295Z,7.8
2018-12-21T00:24:01.939Z,7.8
2018-12-21T00:25:03.299Z,7.8
2018-12-21T00:26:04.836Z,7.7
2018-12-21T00:27:06.185Z,7.7
2018-12-21T00:28:07.705Z,7.7
2018-12-21T00:29:09.290Z,7.7
2018-12-21T00:30:10.852Z,7.7
2018-12-21T00:31:12.244Z,7.6
2018-12-21T00:32:13.612Z,7.6
2018-12-21T00:33:14.977Z,7.6
2018-12-21T00:34:16.353Z,7.5
2018-12-21T00:35:17.725Z,7.5
2018-12-21T00:36:19.103Z,7.5
2018-12-21T00:37:20.493Z,7.5
2018-12-21T00:38:21.873Z,7.4
2018-12-21T00:39:23.243Z,7.4
2018-12-21T00:40:24.788Z,7.4
2018-12-21T00:41:26.311Z,7.4
2018-12-21T00:42:27.839Z,7.4
2018-12-21T00:43:29.373Z,7.5
2018-12-21T00:44:31.011Z,7.5
2018-12-21T00:45:32.252Z,7.5
2018-12-21T00:46:33.783Z,7.5
2018-12-21T00:47:35.007Z,7.5
2018-12-21T00:48:36.397Z,7.5
2018-12-21T00:49:37.936Z,7.5
2018-12-21T00:50:39.293Z,7.5
2018-12-21T00:51:40.665Z,7.5
2018-12-21T00:52:42.203Z,7.5
2018-12-21T00:53:43.589Z,7.5
2018-12-21T00:54:45.115Z,7.5
2018-12-21T00:55:46.652Z,7.5
2018-12-21T00:56:48.158Z,7.5
2018-12-21T00:57:49.703Z,7.4
2018-12-21T00:58:50.911Z,7.4
2018-12-21T00:59:52.299Z,7.4
2018-12-21T01:00:53.827Z,7.4
2018-12-21T01:01:55.339Z,7.4
2018-12-21T01:02:56.711Z,7.4
2018-12-21T01:03:58.093Z,7.4
2018-12-21T01:04:59.314Z,7.4
2018-12-21T01:06:00.833Z,7.4
2018-12-21T01:07:02.205Z,7.4
2018-12-21T01:08:03.733Z,7.4
2018-12-21T01:09:05.245Z,7.4
2018-12-21T01:10:06.763Z,7.4
2018-12-21T01:11:08.291Z,7.4
2018-12-21T01:12:09.346Z,7.4
2018-12-21T01:13:13.133Z,7.4
2018-12-21T01:14:14.341Z,7.4
2018-12-21T01:15:15.865Z,7.4
2018-12-21T01:16:17.611Z,7.3
2018-12-21T01:17:19.128Z,7.3
2018-12-21T01:18:20.503Z,7.3
2018-12-21T01:19:21.981Z,7.3
2018-12-21T01:20:23.402Z,7.3
2018-12-21T01:21:24.993Z,7.3
2018-12-21T01:22:26.508Z,7.3
2018-12-21T01:23:27.821Z,7.3
2018-12-21T01:24:29.383Z,7.3
2018-12-21T01:25:30.923Z,7.3
2018-12-21T01:26:32.441Z,7.3
2018-12-21T01:27:33.972Z,7.3
2018-12-21T01:28:35.504Z,7.3
2018-12-21T01:29:37.043Z,7.2
2018-12-21T01:30:38.561Z,7.2
2018-12-21T01:31:39.774Z,7.2
2018-12-21T01:32:41.163Z,7.2
2018-12-21T01:33:42.541Z,7.2
2018-12-21T01:34:43.895Z,7.2
2018-12-21T01:35:45.423Z,7.2
2018-12-21T01:36:46.945Z,7.2
2018-12-21T01:37:48.471Z,7.3
2018-12-21T01:38:49.695Z,7.2
2018-12-21T01:39:51.223Z,7.3
2018-12-21T01:40:52.733Z,7.2
2018-12-21T01:41:54.247Z,7.2
2018-12-21T01:42:55.610Z,7.2
2018-12-21T01:43:56.823Z,7.2
2018-12-21T01:44:58.180Z,7.3
2018-12-21T01:45:59.391Z,7.3
2018-12-21T01:47:00.913Z,7.3
2018-12-21T01:48:02.425Z,7.3
2018-12-21T01:49:03.945Z,7.3
2018-12-21T01:50:05.468Z,7.3
2018-12-21T01:51:06.971Z,7.3
2018-12-21T01:52:08.317Z,7.3
2018-12-21T01:53:09.683Z,7.3
2018-12-21T01:54:11.202Z,7.3
2018-12-21T01:55:12.563Z,7.3
2018-12-21T01:56:14.073Z,7.3
2018-12-21T01:57:15.412Z,7.3
2018-12-21T01:58:16.922Z,7.3
2018-12-21T01:59:18.283Z,7.3
2018-12-21T02:00:19.643Z,7.4
2018-12-21T02:01:21.254Z,7.4
2018-12-21T02:02:22.616Z,7.4
2018-12-21T02:03:23.974Z,7.4
2018-12-21T02:04:25.332Z,7.4
2018-12-21T02:05:26.713Z,7.4
2018-12-21T02:06:28.083Z,7.4
2018-12-21T02:07:29.453Z,7.3
2018-12-21T02:08:30.802Z,7.3
2018-12-21T02:09:32.143Z,7.2
2018-12-21T02:10:33.492Z,7.2
2018-12-21T02:11:34.836Z,7.2
2018-12-21T02:12:36.259Z,7.2
2018-12-21T02:13:37.783Z,7.2
2018-12-21T02:14:39.163Z,7.2
2018-12-21T02:15:40.383Z,7.2
2018-12-21T02:16:41.718Z,7.2
2018-12-21T02:17:43.266Z,7.2
2018-12-21T02:18:44.465Z,7.1
2018-12-21T02:19:45.964Z,7.2
2018-12-21T02:20:47.497Z,7.1
2018-12-21T02:21:57.414Z,7.1
2018-12-21T02:22:58.636Z,7.1
2018-12-21T02:24:00.244Z,7.1
2018-12-21T02:25:01.767Z,7.1
2018-12-21T02:26:03.304Z,7.1
2018-12-21T02:27:04.813Z,7.1
2018-12-21T02:28:06.326Z,7.1
2018-12-21T02:29:07.862Z,7.1
2018-12-21T02:30:09.403Z,7.1
2018-12-21T02:31:10.930Z,7.1
2018-12-21T02:32:12.314Z,7.1
2018-12-21T02:33:13.854Z,7.1
2018-12-21T02:34:15.226Z,7.1
2018-12-21T02:35:16.746Z,7.1
2018-12-21T02:36:18.135Z,7.1
2018-12-21T02:37:19.508Z,7.1
2018-12-21T02:38:21.041Z,7.1
2018-12-21T02:39:22.561Z,7.1
2018-12-21T02:40:23.928Z,7.1
2018-12-21T02:41:25.439Z,7.1
2018-12-21T02:42:26.832Z,7.1
2018-12-21T02:43:28.348Z,7.1
2018-12-21T02:44:29.556Z,7.1
2018-12-21T02:45:30.904Z,7.1
2018-12-21T02:46:32.264Z,7.1
2018-12-21T02:47:33.784Z,7.2
2018-12-21T02:48:34.978Z,7.2
2018-12-21T02:49:36.498Z,7.2
2018-12-21T02:50:37.854Z,7.2
2018-12-21T02:51:39.369Z,7.2
2018-12-21T02:52:40.904Z,7.2
2018-12-21T02:53:42.454Z,7.2
2018-12-21T02:54:43.965Z,7.2
2018-12-21T02:55:45.484Z,7.2
2018-12-21T02:56:47.004Z,7.2
2018-12-21T02:57:48.393Z,7.2
2018-12-21T02:58:49.926Z,7.2
2018-12-21T02:59:51.455Z,7.2
2018-12-21T03:00:52.826Z,7.2
2018-12-21T03:01:54.214Z,7.3
2018-12-21T03:02:55.765Z,7.3
2018-12-21T03:03:57.409Z,7.3
2018-12-21T03:04:58.812Z,7.4
2018-12-21T03:06:00.336Z,7.4
2018-12-21T03:07:01.844Z,7.4
2018-12-21T03:08:03.390Z,7.5
2018-12-21T03:09:04.901Z,7.5
2018-12-21T03:10:06.505Z,7.5
2018-12-21T03:11:08.013Z,7.6
2018-12-21T03:12:09.537Z,7.6
2018-12-21T03:13:11.063Z,7.7
2018-12-21T03:14:12.607Z,7.7
2018-12-21T03:15:14.129Z,7.8
2018-12-21T03:16:15.501Z,7.8
2018-12-21T03:17:17.043Z,7.9
2018-12-21T03:18:18.249Z,7.9
2018-12-21T03:19:19.804Z,7.9
2018-12-21T03:20:21.027Z,7.9
2018-12-21T03:21:22.416Z,7.9
2018-12-21T03:22:24.001Z,7.9
2018-12-21T03:23:25.584Z,7.9
2018-12-21T03:24:26.815Z,7.9
2018-12-21T03:25:28.335Z,7.9
2018-12-21T03:26:29.557Z,7.9
2018-12-21T03:27:30.945Z,7.9
2018-12-21T03:28:32.173Z,7.8
2018-12-21T03:29:33.733Z,7.9
2018-12-21T03:30:35.319Z,7.9
2018-12-21T03:31:36.816Z,7.9
2018-12-21T03:32:38.406Z,7.9
2018-12-21T03:33:39.966Z,7.9
2018-12-21T03:34:41.593Z,7.9
2018-12-21T03:35:43.185Z,7.9
2018-12-21T03:36:44.754Z,7.9
2018-12-21T03:37:46.318Z,7.9
2018-12-21T03:38:47.849Z,7.9
2018-12-21T03:39:49.073Z,7.8
2018-12-21T03:40:50.598Z,7.8
2018-12-21T03:41:52.136Z,7.8
2018-12-21T03:42:53.338Z,7.8
2018-12-21T03:43:54.950Z,7.8
2018-12-21T03:44:56.498Z,7.8
2018-12-21T03:45:58.015Z,7.8
2018-12-21T03:46:59.555Z,7.9
2018-12-21T03:48:00.912Z,7.2
2018-12-21T03:49:02.305Z,7.3
2018-12-21T03:50:03.844Z,7.4
2018-12-21T03:51:05.198Z,7.4
2018-12-21T03:52:06.429Z,7.5
2018-12-21T03:53:07.814Z,7.5
2018-12-21T03:54:09.185Z,7.6
2018-12-21T03:55:10.725Z,7.6
2018-12-21T03:56:12.095Z,7.6
2018-12-21T03:57:13.455Z,7.6
2018-12-21T03:58:14.995Z,7.6
2018-12-21T03:59:16.519Z,7.6
2018-12-21T04:00:18.065Z,7.6
2018-12-21T04:01:19.596Z,7.6
2018-12-21T04:02:22.554Z,7.6
2018-12-21T04:03:24.071Z,7.6
2018-12-21T04:04:25.457Z,7.6
2018-12-21T04:05:27.025Z,7.6
2018-12-21T04:06:28.553Z,7.6
2018-12-21T04:07:30.112Z,7.6
2018-12-21T04:08:31.341Z,7.7
2018-12-21T04:09:32.900Z,7.7
2018-12-21T04:10:34.439Z,7.8
2018-12-21T04:11:35.815Z,7.8
2018-12-21T04:12:37.378Z,7.8
2018-12-21T04:13:38.901Z,7.8
2018-12-21T04:14:40.438Z,7.7
2018-12-21T04:15:41.771Z,7.6
2018-12-21T04:16:43.376Z,7.5
2018-12-21T04:17:44.931Z,7.4
2018-12-21T04:18:46.459Z,7.2
2018-12-21T04:19:47.984Z,7.2
2018-12-21T04:20:49.231Z,7.1
2018-12-21T04:21:50.649Z,7.1
2018-12-21T04:22:52.025Z,7.1
2018-12-21T04:23:53.584Z,7.1
2018-12-21T04:24:55.106Z,7.1
2018-12-21T04:25:56.654Z,7.1
2018-12-21T04:26:58.046Z,7.1
2018-12-21T04:27:59.567Z,7.1
2018-12-21T04:29:00.925Z,7.1
2018-12-21T04:30:02.504Z,7.1
2018-12-21T04:31:04.055Z,7.1
2018-12-21T04:32:05.624Z,7.2
2018-12-21T04:33:07.162Z,7.1
2018-12-21T04:34:08.815Z,7.1
2018-12-21T04:35:10.348Z,7.2
2018-12-21T04:36:11.587Z,7.2
2018-12-21T04:37:13.351Z,7.2
2018-12-21T04:38:14.980Z,7.2
2018-12-21T04:39:16.552Z,7.2
2018-12-21T04:40:17.936Z,7.2
2018-12-21T04:41:19.353Z,7.2
2018-12-21T04:42:21.026Z,7.3
2018-12-21T04:43:22.447Z,7.3
2018-12-21T04:44:23.973Z,7.4
2018-12-21T04:45:25.356Z,7.5
2018-12-21T04:46:26.589Z,7.6
2018-12-21T04:47:27.973Z,7.8
2018-12-21T04:48:29.518Z,7.9
2018-12-21T04:49:31.087Z,7.9
2018-12-21T04:50:32.472Z,7.3
2018-12-21T04:51:33.877Z,7.4
2018-12-21T04:52:44.705Z,7.6
2018-12-21T04:53:46.120Z,7.8
2018-12-21T04:54:47.679Z,7.9
2018-12-21T04:55:49.255Z,7.9
2018-12-21T04:56:50.789Z,7.8
2018-12-21T04:57:51.878Z,7.9
2018-12-21T04:58:53.169Z,7.9
2018-12-21T04:59:54.243Z,7.8
2018-12-21T05:00:55.785Z,7.9
2018-12-21T05:01:57.006Z,7.9
2018-12-21T05:02:58.539Z,7.9
2018-12-21T05:04:00.083Z,7.9
2018-12-21T05:05:01.467Z,7.9
2018-12-21T05:06:03.009Z,7.9
2018-12-21T05:07:14.208Z,7.9
2018-12-21T05:08:15.609Z,7.9
2018-12-21T05:09:17.145Z,7.9
2018-12-21T05:10:18.525Z,7.9
2018-12-21T05:11:20.066Z,7.9
2018-12-21T05:12:21.599Z,7.9
2018-12-21T05:13:23.139Z,7.9
2018-12-21T05:14:24.685Z,7.9
2018-12-21T05:15:25.910Z,7.9
2018-12-21T05:16:27.473Z,7.9
2018-12-21T05:17:28.996Z,7.9
2018-12-21T05:18:30.535Z,7.9
2018-12-21T05:19:31.895Z,7.9
2018-12-21T05:20:33.417Z,7.9
2018-12-21T05:21:34.793Z,7.9
2018-12-21T05:22:36.045Z,7.8
2018-12-21T05:23:37.415Z,7.8
2018-12-21T05:24:38.926Z,7.8
2018-12-21T05:25:40.504Z,7.8
2018-12-21T05:26:42.051Z,7.8
2018-12-21T05:27:43.439Z,7.8
2018-12-21T05:28:44.977Z,7.9
2018-12-21T05:29:46.351Z,7.9
2018-12-21T05:30:47.891Z,7.9
2018-12-21T05:31:49.260Z,7.9
2018-12-21T05:32:50.463Z,7.9
2018-12-21T05:33:51.986Z,7.9
2018-12-21T05:34:53.536Z,7.9
2018-12-21T05:35:55.078Z,7.9
2018-12-21T05:36:56.601Z,7.8
2018-12-21T05:37:58.005Z,7.9
2018-12-21T05:38:59.541Z,7.8
2018-12-21T05:40:01.060Z,7.9
2018-12-21T05:41:02.271Z,7.9
2018-12-21T05:42:03.658Z,7.9
2018-12-21T05:43:05.182Z,7.9
2018-12-21T05:44:06.715Z,7.9
2018-12-21T05:45:08.241Z,7.9
2018-12-21T05:46:09.603Z,7.9
2018-12-21T05:47:10.809Z,7.9
2018-12-21T05:48:12.016Z,7.9
2018-12-21T05:49:13.536Z,7.9
2018-12-21T05:50:15.066Z,7.9
2018-12-21T05:51:16.429Z,7.8
2018-12-21T05:52:17.797Z,7.8
2018-12-21T05:53:19.316Z,7.8
2018-12-21T05:54:20.762Z,7.8
2018-12-21T05:55:22.294Z,7.7
2018-12-21T05:56:23.864Z,7.7
2018-12-21T05:57:25.238Z,7.7
2018-12-21T05:58:26.766Z,7.7
2018-12-21T05:59:28.145Z,7.6
2018-12-21T06:00:29.518Z,7.7
2018-12-21T06:01:31.047Z,7.7
2018-12-21T06:02:32.415Z,7.7
2018-12-21T06:03:33.956Z,7.7
2018-12-21T06:04:35.165Z,7.7
2018-12-21T06:05:36.696Z,7.7
2018-12-21T06:06:37.946Z,7.6
2018-12-21T06:07:39.334Z,7.5
2018-12-21T06:08:40.695Z,7.4
2018-12-21T06:09:42.073Z,7.2
2018-12-21T06:10:43.478Z,7.2
2018-12-21T06:11:44.855Z,7.1
2018-12-21T06:12:46.386Z,7.1
2018-12-21T06:13:47.619Z,7.1
2018-12-21T06:14:49.165Z,7.1
2018-12-21T06:15:50.683Z,7.1
2018-12-21T06:16:52.378Z,7.1
2018-12-21T06:17:53.820Z,7.1
2018-12-21T06:18:55.215Z,7.1
2018-12-21T06:19:56.580Z,7.1
2018-12-21T06:20:58.146Z,7.1
2018-12-21T06:21:59.516Z,7.1
2018-12-21T06:23:09.864Z,7.2
2018-12-21T06:24:11.410Z,7.2
2018-12-21T06:25:12.926Z,7.1
2018-12-21T06:26:14.454Z,7.2
2018-12-21T06:27:15.998Z,7.2
2018-12-21T06:28:17.046Z,7.2
2018-12-21T06:29:18.576Z,7.2
2018-12-21T06:30:20.086Z,7.2
2018-12-21T06:31:21.602Z,7.2
2018-12-21T06:32:23.128Z,7.3
2018-12-21T06:33:24.532Z,7.3
2018-12-21T06:34:25.986Z,7.4
2018-12-21T06:35:27.516Z,7.6
2018-12-21T06:36:28.914Z,7.7
2018-12-21T06:37:30.458Z,7.9
2018-12-21T06:38:32.076Z,7.9
2018-12-21T06:39:33.607Z,7.9
2018-12-21T06:40:35.146Z,7.3
2018-12-21T06:41:36.674Z,7.5
2018-12-21T06:42:38.196Z,7.7
2018-12-21T06:43:39.652Z,7.8
2018-12-21T06:44:41.016Z,7.7
2018-12-21T06:45:42.404Z,7.9
2018-12-21T06:46:43.806Z,7.9
2018-12-21T06:47:45.171Z,7.9
2018-12-21T06:48:46.797Z,7.9
2018-12-21T06:49:48.354Z,7.5
2018-12-21T06:50:49.884Z,7.7
2018-12-21T06:51:51.263Z,7.8
2018-12-21T06:52:52.775Z,7.8
2018-12-21T06:53:54.168Z,7.9
2018-12-21T06:54:55.705Z,7.9
2018-12-21T06:55:56.920Z,7.9
2018-12-21T06:56:58.445Z,7.9
2018-12-21T06:57:59.806Z,7.9
2018-12-21T06:59:01.330Z,7.9
2018-12-21T07:00:02.698Z,7.9
2018-12-21T07:01:04.242Z,7.9
2018-12-21T07:02:05.726Z,7.9
2018-12-21T07:03:07.201Z,7.2
2018-12-21T07:04:08.585Z,7.3
2018-12-21T07:05:10.106Z,7.4
2018-12-21T07:06:11.628Z,7.4
2018-12-21T07:07:12.842Z,7.5
2018-12-21T07:08:14.356Z,7.5
2018-12-21T07:09:15.575Z,7.6
2018-12-21T07:10:16.946Z,7.6
2018-12-21T07:11:18.616Z,7.6
2018-12-21T07:12:20.222Z,7.6
2018-12-21T07:13:21.442Z,7.6
2018-12-21T07:14:22.834Z,7.6
2018-12-21T07:15:24.376Z,7.7
2018-12-21T07:16:25.900Z,7.7
2018-12-21T07:17:27.322Z,7.7
2018-12-21T07:18:28.716Z,7.7
2018-12-21T07:19:30.104Z,7.7
2018-12-21T07:20:31.496Z,7.7
2018-12-21T07:21:33.028Z,7.7
2018-12-21T07:22:34.546Z,7.7
2018-12-21T07:23:36.086Z,7.7
2018-12-21T07:24:37.330Z,7.6
2018-12-21T07:25:38.860Z,7.6
2018-12-21T07:26:40.262Z,7.6
2018-12-21T07:27:41.672Z,7.6
2018-12-21T07:28:43.057Z,7.6
2018-12-21T07:29:44.285Z,7.6
2018-12-21T07:30:45.812Z,7.7
2018-12-21T07:31:47.200Z,7.7
2018-12-21T07:32:48.655Z,7.7
2018-12-21T07:33:49.942Z,7.7
2018-12-21T07:34:51.482Z,7.8
2018-12-21T07:35:53.016Z,7.7
2018-12-21T07:36:54.225Z,7.7
2018-12-21T07:37:55.765Z,7.7
2018-12-21T07:38:57.145Z,7.7
2018-12-21T07:39:58.523Z,7.7
2018-12-21T07:41:00.095Z,7.7
2018-12-21T07:42:01.633Z,7.8
2018-12-21T07:43:03.000Z,7.8
2018-12-21T07:44:04.395Z,7.8
2018-12-21T07:45:05.931Z,7.8
2018-12-21T07:46:07.309Z,7.8
2018-12-21T07:47:08.856Z,7.2
2018-12-21T07:48:10.087Z,7.2
2018-12-21T07:49:11.304Z,7.2
2018-12-21T07:50:12.845Z,7.2
2018-12-21T07:51:14.383Z,7.2
2018-12-21T07:52:15.928Z,7.2
2018-12-21T07:53:17.460Z,7.1
2018-12-21T07:54:18.998Z,7.1
2018-12-21T07:55:20.558Z,7.1
2018-12-21T07:56:21.956Z,7.2
2018-12-21T07:57:23.021Z,7.1
2018-12-21T07:58:24.391Z,7.1
2018-12-21T07:59:25.928Z,7.1
2018-12-21T08:00:27.307Z,7.1
2018-12-21T08:01:28.864Z,7.1
2018-12-21T08:02:30.084Z,7.1
2018-12-21T08:03:31.460Z,7.1
2018-12-21T08:04:33.032Z,7.1
2018-12-21T08:05:34.593Z,7.2
2018-12-21T08:06:35.964Z,7.1
2018-12-21T08:07:37.501Z,7.2
2018-12-21T08:08:38.913Z,7.2
2018-12-21T08:09:40.280Z,7.2
2018-12-21T08:10:41.816Z,7.2
2018-12-21T08:11:43.201Z,7.2
2018-12-21T08:12:44.597Z,7.2
2018-12-21T08:13:45.991Z,7.2
2018-12-21T08:14:47.512Z,7.2
2018-12-21T08:15:48.759Z,7.2
2018-12-21T08:16:50.125Z,7.2
2018-12-21T08:17:51.677Z,7.3
2018-12-21T08:18:53.107Z,7.3
2018-12-21T08:19:54.483Z,7.3
2018-12-21T08:20:56.025Z,7.4
2018-12-21T08:21:57.438Z,7.4
2018-12-21T08:22:58.820Z,7.5
2018-12-21T08:24:00.033Z,7.6
2018-12-21T08:25:01.401Z,7.7
2018-12-21T08:26:02.964Z,7.8
2018-12-21T08:27:04.505Z,7.9
2018-12-21T08:28:06.054Z,7.7
2018-12-21T08:29:07.437Z,7.7
2018-12-21T08:30:08.807Z,7.9
2018-12-21T08:31:12.123Z,7.9
2018-12-21T08:32:13.650Z,7.9
2018-12-21T08:33:15.195Z,7.2
2018-12-21T08:34:16.749Z,7.3
2018-12-21T08:35:18.103Z,7.5
2018-12-21T08:36:19.463Z,7.6
2018-12-21T08:37:20.834Z,7.7
2018-12-21T08:38:22.208Z,7.8
2018-12-21T08:39:23.584Z,7.9
2018-12-21T08:40:25.050Z,7.9
2018-12-21T08:41:26.582Z,7.9
2018-12-21T08:42:27.987Z,7.9
2018-12-21T08:43:29.352Z,7.9
2018-12-21T08:44:30.787Z,7.9
2018-12-21T08:45:31.867Z,7.9
2018-12-21T08:46:33.498Z,7.8
2018-12-21T08:47:35.168Z,7.8
2018-12-21T08:48:36.540Z,7.8
2018-12-21T08:49:37.774Z,7.8
2018-12-21T08:50:39.238Z,7.8
2018-12-21T08:51:40.783Z,7.8
2018-12-21T08:52:42.425Z,7.8
2018-12-21T08:53:43.974Z,7.8
2018-12-21T08:54:45.502Z,7.8
2018-12-21T08:55:46.575Z,7.8
2018-12-21T08:56:48.136Z,7.8
2018-12-21T08:57:49.515Z,7.8
2018-12-21T08:58:51.059Z,7.8
2018-12-21T08:59:52.610Z,7.8
2018-12-21T09:00:53.822Z,7.8
2018-12-21T09:01:55.354Z,7.8
2018-12-21T09:02:56.878Z,7.8
2018-12-21T09:03:58.260Z,7.8
2018-12-21T09:04:59.807Z,7.8
2018-12-21T09:06:01.360Z,7.8
2018-12-21T09:07:02.771Z,7.8
2018-12-21T09:08:04.433Z,7.8
2018-12-21T09:09:05.816Z,7.8
2018-12-21T09:10:07.037Z,7.8
2018-12-21T09:11:08.558Z,7.8
2018-12-21T09:12:10.082Z,7.8
2018-12-21T09:13:11.525Z,7.7
2018-12-21T09:14:13.065Z,7.7
2018-12-21T09:15:14.611Z,7.7
2018-12-21T09:16:16.136Z,7.8
2018-12-21T09:17:17.361Z,7.8
2018-12-21T09:18:18.718Z,7.8
2018-12-21T09:19:20.153Z,7.8
2018-12-21T09:20:21.563Z,7.8
2018-12-21T09:21:22.941Z,7.8
2018-12-21T09:22:24.453Z,7.8
2018-12-21T09:23:25.982Z,7.7
2018-12-21T09:24:27.493Z,7.6
2018-12-21T09:25:29.024Z,7.5
2018-12-21T09:26:30.555Z,7.4
2018-12-21T09:27:31.943Z,7.2
2018-12-21T09:28:33.571Z,7.1
2018-12-21T09:29:34.945Z,7.1
2018-12-21T09:30:36.485Z,7.1
2018-12-21T09:31:39.175Z,7.1
2018-12-21T09:32:40.722Z,7.1
2018-12-21T09:33:42.226Z,7.1
2018-12-21T09:34:43.740Z,7.1
2018-12-21T09:35:45.285Z,7.1
2018-12-21T09:36:46.824Z,7.1
2018-12-21T09:37:48.209Z,7.1
2018-12-21T09:38:49.751Z,7.1
2018-12-21T09:39:51.140Z,7.2
2018-12-21T09:40:52.374Z,7.2
2018-12-21T09:41:53.763Z,7.2
2018-12-21T09:42:55.309Z,7.2
2018-12-21T09:43:56.836Z,7.2
2018-12-21T09:44:58.207Z,7.2
2018-12-21T09:45:59.751Z,7.2
2018-12-21T09:47:01.133Z,7.2
2018-12-21T09:48:02.536Z,7.2
2018-12-21T09:49:03.923Z,7.2
2018-12-21T09:50:05.342Z,7.2
2018-12-21T09:51:06.726Z,7.2
2018-12-21T09:52:08.264Z,7.2
2018-12-21T09:53:09.489Z,7.3
2018-12-21T09:54:11.769Z,7.3
2018-12-21T09:55:13.182Z,7.4
2018-12-21T09:56:14.726Z,7.5
2018-12-21T09:57:16.256Z,7.6
2018-12-21T09:58:17.633Z,7.7
2018-12-21T09:59:19.012Z,7.8
2018-12-21T10:00:20.561Z,7.9
2018-12-21T10:01:22.092Z,7.9
2018-12-21T10:02:23.651Z,7.9
2018-12-21T10:03:25.051Z,7.9
2018-12-21T10:04:26.598Z,7.9
2018-12-21T10:05:28.075Z,7.9
2018-12-21T10:06:29.607Z,7.9
2018-12-21T10:07:31.235Z,7.2
2018-12-21T10:08:32.798Z,7.4
2018-12-21T10:09:34.297Z,7.5
2018-12-21T10:10:35.716Z,7.6
2018-12-21T10:11:37.353Z,7.7
2018-12-21T10:12:38.850Z,7.8
2018-12-21T10:13:40.272Z,7.9
2018-12-21T10:14:41.816Z,7.9
2018-12-21T10:15:43.374Z,7.9
2018-12-21T10:16:44.845Z,7.9
2018-12-21T10:17:46.277Z,7.9
2018-12-21T10:18:47.689Z,7.9
2018-12-21T10:19:49.062Z,7.9
2018-12-21T10:20:50.472Z,7.9
2018-12-21T10:21:52.072Z,7.9
2018-12-21T10:22:53.536Z,7.9
2018-12-21T10:23:55.145Z,7.9
2018-12-21T10:24:56.530Z,7.9
2018-12-21T10:25:58.064Z,7.9
2018-12-21T10:26:59.619Z,7.9
2018-12-21T10:28:01.166Z,7.9
2018-12-21T10:29:02.740Z,7.9
2018-12-21T10:30:03.967Z,7.9
2018-12-21T10:31:05.572Z,7.8
2018-12-21T10:32:07.186Z,7.8
2018-12-21T10:33:08.600Z,7.8
2018-12-21T10:34:10.132Z,7.8
2018-12-21T10:35:11.671Z,7.8
2018-12-21T10:36:13.205Z,7.8
2018-12-21T10:37:16.891Z,7.2
2018-12-21T10:38:18.302Z,7.3
2018-12-21T10:39:19.827Z,7.4
2018-12-21T10:40:21.372Z,7.4
2018-12-21T10:41:22.693Z,7.4
2018-12-21T10:42:24.112Z,7.5
2018-12-21T10:43:25.663Z,7.5
2018-12-21T10:44:27.033Z,7.5
2018-12-21T10:45:28.559Z,7.6
2018-12-21T10:46:30.118Z,7.6
2018-12-21T10:47:31.199Z,7.6
2018-12-21T10:48:32.753Z,7.7
2018-12-21T10:49:34.308Z,7.7
2018-12-21T10:50:35.902Z,7.8
2018-12-21T10:51:37.593Z,7.8
2018-12-21T10:52:40.333Z,7.9
2018-12-21T10:53:41.668Z,7.9
2018-12-21T10:54:43.211Z,7.7
2018-12-21T10:55:44.766Z,7.8
2018-12-21T10:56:46.155Z,7.8
2018-12-21T10:57:47.543Z,7.9
2018-12-21T10:58:51.270Z,7.9
2018-12-21T10:59:52.497Z,7.9
2018-12-21T11:00:53.930Z,7.9
2018-12-21T11:01:55.414Z,7.9
2018-12-21T11:02:56.976Z,7.9
2018-12-21T11:03:58.358Z,7.9
2018-12-21T11:04:59.762Z,7.9
2018-12-21T11:06:01.315Z,7.8
2018-12-21T11:07:02.687Z,7.7
2018-12-21T11:08:04.187Z,7.6
2018-12-21T11:09:05.777Z,7.5
2018-12-21T11:10:07.185Z,7.3
2018-12-21T11:11:08.466Z,7.1
2018-12-21T11:12:10.087Z,7.1
2018-12-21T11:13:11.345Z,7.1
2018-12-21T11:14:12.893Z,7.1
2018-12-21T11:15:14.452Z,7.1
2018-12-21T11:16:15.847Z,7.1
2018-12-21T11:17:17.380Z,7.1
2018-12-21T11:18:18.769Z,7.1
2018-12-21T11:19:20.156Z,7.1
2018-12-21T11:20:21.734Z,7.1
2018-12-21T11:21:23.173Z,7.1
2018-12-21T11:22:24.631Z,7.1
2018-12-21T11:23:26.182Z,7.1
2018-12-21T11:24:36.822Z,7.1
2018-12-21T11:25:38.365Z,7.2
2018-12-21T11:26:39.738Z,7.1
2018-12-21T11:27:41.284Z,7.2
2018-12-21T11:28:42.515Z,7.2
2018-12-21T11:29:43.923Z,7.2
2018-12-21T11:30:45.496Z,7.2
2018-12-21T11:31:46.988Z,7.2
2018-12-21T11:32:48.556Z,7.2
2018-12-21T11:33:49.933Z,7.2
2018-12-21T11:34:51.585Z,7.2
2018-12-21T11:35:52.824Z,7.2
2018-12-21T11:36:54.200Z,7.2
2018-12-21T11:37:55.745Z,7.2
2018-12-21T11:38:57.286Z,7.3
2018-12-21T11:39:58.681Z,7.3
2018-12-21T11:41:00.087Z,7.4
2018-12-21T11:42:01.618Z,7.5
2018-12-21T11:43:03.052Z,7.6
2018-12-21T11:44:04.615Z,7.7
2018-12-21T11:45:06.005Z,7.8
2018-12-21T11:46:07.543Z,7.9
2018-12-21T11:47:09.088Z,7.9
2018-12-21T11:48:10.469Z,7.9
2018-12-21T11:49:12.031Z,7.7
2018-12-21T11:50:13.602Z,7.8
2018-12-21T11:51:15.148Z,7.9
2018-12-21T11:52:16.547Z,7.9
2018-12-21T11:53:18.090Z,7.6
2018-12-21T11:54:19.646Z,7.8
2018-12-21T11:55:21.038Z,7.9
2018-12-21T11:56:22.569Z,7.2
2018-12-21T11:57:24.130Z,7.3
2018-12-21T11:58:25.521Z,7.5
2018-12-21T11:59:27.031Z,7.6
2018-12-21T12:00:28.428Z,7.8
2018-12-21T12:01:29.653Z,7.9
2018-12-21T12:02:31.210Z,7.7
2018-12-21T12:03:32.598Z,7.9
2018-12-21T12:04:33.832Z,7.9
2018-12-21T12:05:35.385Z,7.3
2018-12-21T12:06:36.778Z,7.4
2018-12-21T12:07:38.342Z,7.5
2018-12-21T12:08:39.898Z,7.7
2018-12-21T12:09:41.142Z,7.8
2018-12-21T12:10:42.671Z,7.9
2018-12-21T12:11:43.895Z,7.9
2018-12-21T12:12:45.439Z,7.9
2018-12-21T12:13:47.004Z,7.9
2018-12-21T12:14:48.398Z,7.9
2018-12-21T12:15:49.807Z,7.8
2018-12-21T12:16:51.203Z,7.8
2018-12-21T12:17:52.760Z,7.8
2018-12-21T12:18:54.322Z,7.8
2018-12-21T12:19:55.712Z,7.8
2018-12-21T12:20:57.009Z,7.8
2018-12-21T12:21:58.377Z,7.8
2018-12-21T12:22:59.936Z,7.7
2018-12-21T12:24:01.149Z,7.7
2018-12-21T12:25:02.691Z,7.7
2018-12-21T12:26:03.924Z,7.7
2018-12-21T12:27:05.459Z,7.7
2018-12-21T12:28:06.770Z,7.6
2018-12-21T12:29:08.395Z,7.6
2018-12-21T12:30:09.959Z,7.5
2018-12-21T12:31:11.532Z,7.4
2018-12-21T12:32:12.936Z,7.4
2018-12-21T12:33:14.468Z,7.3
2018-12-21T12:34:15.868Z,7.3
2018-12-21T12:35:17.258Z,7.2
2018-12-21T12:36:18.653Z,7.2
2018-12-21T12:37:20.106Z,7.2
2018-12-21T12:38:21.334Z,7.2
2018-12-21T12:39:22.882Z,7.2
2018-12-21T12:40:24.426Z,7.2
2018-12-21T12:41:26.007Z,7.2
2018-12-21T12:42:27.544Z,7.2
2018-12-21T12:43:29.082Z,7.2
2018-12-21T12:44:30.622Z,7.2
2018-12-21T12:45:32.194Z,7.2
2018-12-21T12:46:33.589Z,7.2
2018-12-21T12:47:35.078Z,7.2
2018-12-21T12:48:36.630Z,7.2
2018-12-21T12:49:38.196Z,7.2
2018-12-21T12:50:39.770Z,7.2
2018-12-21T12:51:41.298Z,7.2
2018-12-21T12:52:42.829Z,7.2
2018-12-21T12:53:44.148Z,7.1
2018-12-21T12:54:45.722Z,7.2
2018-12-21T12:55:47.260Z,7.1
2018-12-21T12:56:48.726Z,7.1
2018-12-21T12:57:50.115Z,7.1
2018-12-21T12:58:51.671Z,7.1
2018-12-21T12:59:53.084Z,7.1
2018-12-21T13:00:54.611Z,7.1
2018-12-21T13:01:58.412Z,7.1
2018-12-21T13:03:00.082Z,7.1
2018-12-21T13:04:01.616Z,7.1
2018-12-21T13:05:03.183Z,7.1
2018-12-21T13:06:04.726Z,7.2
2018-12-21T13:07:05.992Z,7.2
2018-12-21T13:08:07.672Z,7.2
2018-12-21T13:09:09.053Z,7.1
2018-12-21T13:10:10.595Z,7.2
2018-12-21T13:11:12.142Z,7.2
2018-12-21T13:12:13.660Z,7.2
2018-12-21T13:13:15.121Z,7.2
2018-12-21T13:14:18.182Z,7.2
2018-12-21T13:15:19.742Z,7.2
2018-12-21T13:16:21.434Z,7.2
2018-12-21T13:17:23.043Z,7.3
2018-12-21T13:18:24.427Z,7.4
2018-12-21T13:19:26.003Z,7.4
2018-12-21T13:20:27.372Z,7.5
2018-12-21T13:21:28.626Z,7.6
2018-12-21T13:22:30.032Z,7.7
2018-12-21T13:23:31.268Z,7.8
2018-12-21T13:24:35.063Z,7.8
2018-12-21T13:25:36.625Z,7.9
2018-12-21T13:26:38.164Z,7.9
2018-12-21T13:27:39.710Z,7.9
2018-12-21T13:28:41.251Z,7.9
2018-12-21T13:29:42.830Z,7.9
2018-12-21T13:30:44.214Z,7.9
2018-12-21T13:31:45.833Z,7.2
2018-12-21T13:32:47.386Z,7.3
2018-12-21T13:33:48.937Z,7.4
2018-12-21T13:34:50.192Z,7.5
2018-12-21T13:35:51.580Z,7.6
2018-12-21T13:36:52.984Z,7.7
2018-12-21T13:37:54.562Z,7.7
2018-12-21T13:38:56.266Z,7.8
2018-12-21T13:39:57.852Z,7.8
2018-12-21T13:40:59.253Z,7.8
2018-12-21T13:42:00.670Z,7.9
2018-12-21T13:43:02.259Z,7.9
2018-12-21T13:44:03.831Z,7.9
2018-12-21T13:45:05.261Z,7.9
2018-12-21T13:46:06.661Z,7.9
2018-12-21T13:47:08.279Z,7.9
2018-12-21T13:48:09.845Z,7.9
2018-12-21T13:49:11.380Z,7.9
2018-12-21T13:50:12.931Z,7.9
2018-12-21T13:51:14.460Z,7.8
2018-12-21T13:52:15.873Z,7.9
2018-12-21T13:53:17.253Z,7.9
2018-12-21T13:54:18.674Z,7.9
2018-12-21T13:55:21.972Z,7.9
2018-12-21T13:56:23.495Z,7.9
2018-12-21T13:57:25.165Z,7.9
2018-12-21T13:58:26.727Z,7.9
2018-12-21T13:59:28.250Z,7.9
2018-12-21T14:00:29.653Z,7.9
2018-12-21T14:01:31.066Z,7.9
2018-12-21T14:02:32.678Z,7.9
2018-12-21T14:03:33.919Z,7.9
2018-12-21T14:04:35.465Z,7.9
2018-12-21T14:05:36.859Z,7.9
2018-12-21T14:06:38.097Z,7.8
2018-12-21T14:07:39.493Z,7.9